sensor_id;sensor_type;location;lat;lon;timestamp;P1;durP1;ratioP1;P2;durP2;ratioP2
81487;SDS011;70897;52.464;13.428;2024-03-02T00:02:17;82.03;;;45.60;;
81487;SDS011;70897;52.464;13.428;2024-03-02T00:05:02;75.70;;;42.45;;
81487;SDS011;70897;52.464;13.428;2024-03-02T00:07:53;84.28;;;43.88;;
81487;SDS011;70897;52.464;13.428;2024-03-02T00:10:40;78.22;;;43.55;;
81487;SDS011;70897;52.464;13.428;2024-03-02T00:13:25;76.28;;;42.92;;
81487;SDS011;70897;52.464;13.428;2024-03-02T00:16:10;71.95;;;42.30;;
81487;SDS011;70897;52.464;13.428;2024-03-02T00:18:56;76.57;;;42.88;;
81487;SDS011;70897;52.464;13.428;2024-03-02T00:21:41;69.80;;;41.35;;
81487;SDS011;70897;52.464;13.428;2024-03-02T00:24:31;74.47;;;42.65;;
81487;SDS011;70897;52.464;13.428;2024-03-02T00:27:17;76.93;;;42.33;;
81487;SDS011;70897;52.464;13.428;2024-03-02T00:30:06;73.47;;;43.38;;
81487;SDS011;70897;52.464;13.428;2024-03-02T00:33:08;78.38;;;43.40;;
81487;SDS011;70897;52.464;13.428;2024-03-02T00:35:54;82.45;;;44.10;;
81487;SDS011;70897;52.464;13.428;2024-03-02T00:41:29;77.82;;;44.65;;
81487;SDS011;70897;52.464;13.428;2024-03-02T00:44:15;80.57;;;45.97;;
81487;SDS011;70897;52.464;13.428;2024-03-02T00:47:00;79.15;;;45.92;;
81487;SDS011;70897;52.464;13.428;2024-03-02T00:49:46;81.50;;;46.58;;
81487;SDS011;70897;52.464;13.428;2024-03-02T00:52:32;81.90;;;45.33;;
81487;SDS011;70897;52.464;13.428;2024-03-02T00:55:17;80.50;;;45.63;;
81487;SDS011;70897;52.464;13.428;2024-03-02T00:58:04;85.10;;;48.42;;
81487;SDS011;70897;52.464;13.428;2024-03-02T01:00:49;82.10;;;47.85;;
81487;SDS011;70897;52.464;13.428;2024-03-02T01:03:35;88.13;;;48.38;;
81487;SDS011;70897;52.464;13.428;2024-03-02T01:06:21;92.78;;;48.35;;
81487;SDS011;70897;52.464;13.428;2024-03-02T01:09:06;86.97;;;48.08;;
81487;SDS011;70897;52.464;13.428;2024-03-02T01:11:52;85.80;;;47.97;;
81487;SDS011;70897;52.464;13.428;2024-03-02T01:14:37;86.10;;;48.22;;
81487;SDS011;70897;52.464;13.428;2024-03-02T01:17:23;88.13;;;49.40;;
81487;SDS011;70897;52.464;13.428;2024-03-02T01:20:08;94.53;;;49.65;;
81487;SDS011;70897;52.464;13.428;2024-03-02T01:22:54;91.07;;;49.63;;
81487;SDS011;70897;52.464;13.428;2024-03-02T01:25:40;87.28;;;47.70;;
81487;SDS011;70897;52.464;13.428;2024-03-02T01:28:25;86.65;;;48.53;;
81487;SDS011;70897;52.464;13.428;2024-03-02T01:31:11;89.30;;;49.35;;
81487;SDS011;70897;52.464;13.428;2024-03-02T01:33:57;85.88;;;48.70;;
81487;SDS011;70897;52.464;13.428;2024-03-02T01:36:42;83.40;;;49.53;;
81487;SDS011;70897;52.464;13.428;2024-03-02T01:39:28;84.03;;;47.28;;
81487;SDS011;70897;52.464;13.428;2024-03-02T01:42:14;88.75;;;48.03;;
81487;SDS011;70897;52.464;13.428;2024-03-02T01:44:59;90.30;;;48.70;;
81487;SDS011;70897;52.464;13.428;2024-03-02T01:47:45;87.80;;;50.25;;
81487;SDS011;70897;52.464;13.428;2024-03-02T01:50:31;96.50;;;50.22;;
81487;SDS011;70897;52.464;13.428;2024-03-02T01:53:17;95.47;;;50.03;;
81487;SDS011;70897;52.464;13.428;2024-03-02T01:56:03;89.03;;;49.90;;
81487;SDS011;70897;52.464;13.428;2024-03-02T01:58:49;94.50;;;50.17;;
81487;SDS011;70897;52.464;13.428;2024-03-02T02:01:34;86.43;;;49.35;;
81487;SDS011;70897;52.464;13.428;2024-03-02T02:04:20;87.88;;;49.80;;
81487;SDS011;70897;52.464;13.428;2024-03-02T02:07:11;90.85;;;50.35;;
81487;SDS011;70897;52.464;13.428;2024-03-02T02:09:58;89.65;;;50.20;;
81487;SDS011;70897;52.464;13.428;2024-03-02T02:12:43;95.68;;;51.45;;
81487;SDS011;70897;52.464;13.428;2024-03-02T02:15:29;92.35;;;50.38;;
81487;SDS011;70897;52.464;13.428;2024-03-02T02:18:15;95.03;;;51.45;;
81487;SDS011;70897;52.464;13.428;2024-03-02T02:21:00;90.22;;;50.13;;
81487;SDS011;70897;52.464;13.428;2024-03-02T02:23:46;91.25;;;51.60;;
81487;SDS011;70897;52.464;13.428;2024-03-02T02:26:32;88.35;;;50.88;;
81487;SDS011;70897;52.464;13.428;2024-03-02T02:29:18;92.47;;;51.17;;
81487;SDS011;70897;52.464;13.428;2024-03-02T02:32:04;91.05;;;50.67;;
81487;SDS011;70897;52.464;13.428;2024-03-02T02:34:52;90.85;;;50.92;;
81487;SDS011;70897;52.464;13.428;2024-03-02T02:37:38;92.78;;;51.92;;
81487;SDS011;70897;52.464;13.428;2024-03-02T02:40:23;90.25;;;50.20;;
81487;SDS011;70897;52.464;13.428;2024-03-02T02:43:09;83.18;;;48.60;;
81487;SDS011;70897;52.464;13.428;2024-03-02T02:45:54;89.40;;;50.55;;
81487;SDS011;70897;52.464;13.428;2024-03-02T02:48:40;92.32;;;50.22;;
81487;SDS011;70897;52.464;13.428;2024-03-02T02:51:25;93.57;;;51.63;;
81487;SDS011;70897;52.464;13.428;2024-03-02T02:54:11;95.63;;;50.00;;
81487;SDS011;70897;52.464;13.428;2024-03-02T02:56:56;87.75;;;48.95;;
81487;SDS011;70897;52.464;13.428;2024-03-02T02:59:41;86.15;;;49.50;;
81487;SDS011;70897;52.464;13.428;2024-03-02T03:02:27;89.47;;;50.03;;
81487;SDS011;70897;52.464;13.428;2024-03-02T03:05:13;89.13;;;49.05;;
81487;SDS011;70897;52.464;13.428;2024-03-02T03:07:59;93.30;;;51.22;;
81487;SDS011;70897;52.464;13.428;2024-03-02T03:10:44;96.80;;;49.72;;
81487;SDS011;70897;52.464;13.428;2024-03-02T03:13:30;95.38;;;50.58;;
81487;SDS011;70897;52.464;13.428;2024-03-02T03:16:16;88.72;;;49.20;;
81487;SDS011;70897;52.464;13.428;2024-03-02T03:19:01;91.25;;;49.33;;
81487;SDS011;70897;52.464;13.428;2024-03-02T03:21:47;88.88;;;49.45;;
81487;SDS011;70897;52.464;13.428;2024-03-02T03:24:32;91.93;;;48.03;;
81487;SDS011;70897;52.464;13.428;2024-03-02T03:27:18;82.72;;;47.00;;
81487;SDS011;70897;52.464;13.428;2024-03-02T03:30:04;80.35;;;47.33;;
81487;SDS011;70897;52.464;13.428;2024-03-02T03:32:50;90.75;;;47.75;;
81487;SDS011;70897;52.464;13.428;2024-03-02T03:35:36;85.60;;;47.33;;
81487;SDS011;70897;52.464;13.428;2024-03-02T03:38:22;82.80;;;46.15;;
81487;SDS011;70897;52.464;13.428;2024-03-02T03:41:07;78.80;;;46.38;;
81487;SDS011;70897;52.464;13.428;2024-03-02T03:43:53;77.43;;;46.10;;
81487;SDS011;70897;52.464;13.428;2024-03-02T03:46:38;85.78;;;46.30;;
81487;SDS011;70897;52.464;13.428;2024-03-02T03:49:24;81.22;;;45.42;;
81487;SDS011;70897;52.464;13.428;2024-03-02T03:52:09;80.95;;;46.38;;
81487;SDS011;70897;52.464;13.428;2024-03-02T03:54:55;82.45;;;45.20;;
81487;SDS011;70897;52.464;13.428;2024-03-02T03:57:40;80.80;;;45.35;;
81487;SDS011;70897;52.464;13.428;2024-03-02T04:00:25;74.85;;;43.33;;
81487;SDS011;70897;52.464;13.428;2024-03-02T04:03:11;77.63;;;44.13;;
81487;SDS011;70897;52.464;13.428;2024-03-02T04:05:57;82.30;;;45.05;;
81487;SDS011;70897;52.464;13.428;2024-03-02T04:08:42;79.10;;;44.33;;
81487;SDS011;70897;52.464;13.428;2024-03-02T04:11:28;74.88;;;44.03;;
81487;SDS011;70897;52.464;13.428;2024-03-02T04:14:14;79.70;;;45.20;;
81487;SDS011;70897;52.464;13.428;2024-03-02T04:17:00;82.55;;;44.53;;
81487;SDS011;70897;52.464;13.428;2024-03-02T04:19:45;73.60;;;44.25;;
81487;SDS011;70897;52.464;13.428;2024-03-02T04:22:32;77.70;;;42.60;;
81487;SDS011;70897;52.464;13.428;2024-03-02T04:25:18;81.38;;;43.83;;
81487;SDS011;70897;52.464;13.428;2024-03-02T04:28:04;75.05;;;43.63;;
81487;SDS011;70897;52.464;13.428;2024-03-02T04:30:49;75.28;;;43.08;;
81487;SDS011;70897;52.464;13.428;2024-03-02T04:33:35;70.88;;;41.75;;
81487;SDS011;70897;52.464;13.428;2024-03-02T04:36:20;70.07;;;40.22;;
81487;SDS011;70897;52.464;13.428;2024-03-02T04:39:06;69.63;;;41.38;;
81487;SDS011;70897;52.464;13.428;2024-03-02T04:41:53;70.47;;;40.95;;
81487;SDS011;70897;52.464;13.428;2024-03-02T04:44:39;69.57;;;39.72;;
81487;SDS011;70897;52.464;13.428;2024-03-02T04:47:24;68.95;;;40.80;;
81487;SDS011;70897;52.464;13.428;2024-03-02T04:50:10;70.05;;;40.53;;
81487;SDS011;70897;52.464;13.428;2024-03-02T04:52:55;70.55;;;39.15;;
81487;SDS011;70897;52.464;13.428;2024-03-02T04:55:41;66.80;;;39.88;;
81487;SDS011;70897;52.464;13.428;2024-03-02T04:58:26;65.13;;;38.35;;
81487;SDS011;70897;52.464;13.428;2024-03-02T05:01:12;64.25;;;38.85;;
81487;SDS011;70897;52.464;13.428;2024-03-02T05:03:57;66.13;;;38.42;;
81487;SDS011;70897;52.464;13.428;2024-03-02T05:06:42;65.75;;;39.15;;
81487;SDS011;70897;52.464;13.428;2024-03-02T05:09:28;64.75;;;38.63;;
81487;SDS011;70897;52.464;13.428;2024-03-02T05:12:13;66.82;;;38.38;;
81487;SDS011;70897;52.464;13.428;2024-03-02T05:15:19;61.63;;;36.67;;
81487;SDS011;70897;52.464;13.428;2024-03-02T05:18:06;64.38;;;37.42;;
81487;SDS011;70897;52.464;13.428;2024-03-02T05:20:51;66.22;;;38.55;;
81487;SDS011;70897;52.464;13.428;2024-03-02T05:23:36;68.70;;;39.17;;
81487;SDS011;70897;52.464;13.428;2024-03-02T05:26:22;71.78;;;40.53;;
81487;SDS011;70897;52.464;13.428;2024-03-02T05:29:08;71.30;;;38.28;;
81487;SDS011;70897;52.464;13.428;2024-03-02T05:31:53;73.40;;;41.97;;
81487;SDS011;70897;52.464;13.428;2024-03-02T05:34:39;69.03;;;41.53;;
81487;SDS011;70897;52.464;13.428;2024-03-02T05:37:24;75.70;;;42.45;;
81487;SDS011;70897;52.464;13.428;2024-03-02T05:40:09;70.80;;;40.45;;
81487;SDS011;70897;52.464;13.428;2024-03-02T05:42:55;68.43;;;40.58;;
81487;SDS011;70897;52.464;13.428;2024-03-02T05:45:41;74.07;;;42.60;;
81487;SDS011;70897;52.464;13.428;2024-03-02T05:48:26;73.60;;;42.60;;
81487;SDS011;70897;52.464;13.428;2024-03-02T05:51:11;75.57;;;43.75;;
81487;SDS011;70897;52.464;13.428;2024-03-02T05:53:57;79.28;;;42.83;;
81487;SDS011;70897;52.464;13.428;2024-03-02T05:56:42;78.15;;;43.30;;
81487;SDS011;70897;52.464;13.428;2024-03-02T05:59:28;79.38;;;44.28;;
81487;SDS011;70897;52.464;13.428;2024-03-02T06:02:14;77.65;;;43.67;;
81487;SDS011;70897;52.464;13.428;2024-03-02T06:04:59;77.45;;;44.10;;
81487;SDS011;70897;52.464;13.428;2024-03-02T06:07:45;86.57;;;45.13;;
81487;SDS011;70897;52.464;13.428;2024-03-02T06:10:30;80.88;;;45.00;;
81487;SDS011;70897;52.464;13.428;2024-03-02T06:13:16;81.53;;;45.97;;
81487;SDS011;70897;52.464;13.428;2024-03-02T06:16:01;76.63;;;44.03;;
81487;SDS011;70897;52.464;13.428;2024-03-02T06:18:46;79.60;;;45.30;;
81487;SDS011;70897;52.464;13.428;2024-03-02T06:21:32;81.80;;;45.00;;
81487;SDS011;70897;52.464;13.428;2024-03-02T06:24:17;82.13;;;46.75;;
81487;SDS011;70897;52.464;13.428;2024-03-02T06:27:03;82.05;;;46.20;;
81487;SDS011;70897;52.464;13.428;2024-03-02T06:29:49;81.85;;;45.88;;
81487;SDS011;70897;52.464;13.428;2024-03-02T06:32:35;81.97;;;45.78;;
81487;SDS011;70897;52.464;13.428;2024-03-02T06:35:21;78.28;;;45.22;;
81487;SDS011;70897;52.464;13.428;2024-03-02T06:38:06;89.18;;;45.92;;
81487;SDS011;70897;52.464;13.428;2024-03-02T06:40:52;80.35;;;45.75;;
81487;SDS011;70897;52.464;13.428;2024-03-02T06:43:37;82.30;;;45.17;;
81487;SDS011;70897;52.464;13.428;2024-03-02T06:46:23;86.30;;;46.83;;
81487;SDS011;70897;52.464;13.428;2024-03-02T06:49:08;83.57;;;45.55;;
81487;SDS011;70897;52.464;13.428;2024-03-02T06:51:57;78.90;;;44.25;;
81487;SDS011;70897;52.464;13.428;2024-03-02T06:54:42;87.03;;;45.75;;
81487;SDS011;70897;52.464;13.428;2024-03-02T06:57:28;83.63;;;44.97;;
81487;SDS011;70897;52.464;13.428;2024-03-02T07:00:13;85.13;;;45.75;;
81487;SDS011;70897;52.464;13.428;2024-03-02T07:02:58;76.70;;;42.90;;
81487;SDS011;70897;52.464;13.428;2024-03-02T07:05:44;78.85;;;43.25;;
81487;SDS011;70897;52.464;13.428;2024-03-02T07:08:29;75.47;;;43.75;;
81487;SDS011;70897;52.464;13.428;2024-03-02T07:11:15;74.55;;;42.42;;
81487;SDS011;70897;52.464;13.428;2024-03-02T07:14:01;73.13;;;41.40;;
81487;SDS011;70897;52.464;13.428;2024-03-02T07:16:47;80.38;;;43.88;;
81487;SDS011;70897;52.464;13.428;2024-03-02T07:19:32;77.22;;;42.58;;
81487;SDS011;70897;52.464;13.428;2024-03-02T07:22:18;80.47;;;43.70;;
81487;SDS011;70897;52.464;13.428;2024-03-02T07:25:04;75.70;;;43.90;;
81487;SDS011;70897;52.464;13.428;2024-03-02T07:27:51;73.20;;;41.33;;
81487;SDS011;70897;52.464;13.428;2024-03-02T07:30:37;76.45;;;43.33;;
81487;SDS011;70897;52.464;13.428;2024-03-02T07:33:23;75.50;;;42.55;;
81487;SDS011;70897;52.464;13.428;2024-03-02T07:36:08;74.10;;;41.92;;
81487;SDS011;70897;52.464;13.428;2024-03-02T07:38:54;73.88;;;42.42;;
81487;SDS011;70897;52.464;13.428;2024-03-02T07:41:39;73.93;;;41.95;;
81487;SDS011;70897;52.464;13.428;2024-03-02T07:44:25;77.43;;;43.80;;
81487;SDS011;70897;52.464;13.428;2024-03-02T07:47:10;72.93;;;42.88;;
81487;SDS011;70897;52.464;13.428;2024-03-02T07:49:56;74.18;;;42.67;;
81487;SDS011;70897;52.464;13.428;2024-03-02T07:52:41;72.70;;;43.17;;
81487;SDS011;70897;52.464;13.428;2024-03-02T07:55:27;73.88;;;42.40;;
81487;SDS011;70897;52.464;13.428;2024-03-02T07:58:12;74.10;;;43.97;;
81487;SDS011;70897;52.464;13.428;2024-03-02T08:00:58;81.93;;;43.20;;
81487;SDS011;70897;52.464;13.428;2024-03-02T08:03:45;77.07;;;43.00;;
81487;SDS011;70897;52.464;13.428;2024-03-02T08:06:32;76.45;;;42.70;;
81487;SDS011;70897;52.464;13.428;2024-03-02T08:09:17;79.68;;;43.80;;
81487;SDS011;70897;52.464;13.428;2024-03-02T08:12:03;83.32;;;45.30;;
81487;SDS011;70897;52.464;13.428;2024-03-02T08:14:48;74.72;;;42.25;;
81487;SDS011;70897;52.464;13.428;2024-03-02T08:17:34;77.70;;;42.70;;
81487;SDS011;70897;52.464;13.428;2024-03-02T08:20:19;71.22;;;41.47;;
81487;SDS011;70897;52.464;13.428;2024-03-02T08:23:05;76.93;;;42.22;;
81487;SDS011;70897;52.464;13.428;2024-03-02T08:25:50;69.38;;;40.22;;
81487;SDS011;70897;52.464;13.428;2024-03-02T08:28:36;69.53;;;39.85;;
81487;SDS011;70897;52.464;13.428;2024-03-02T08:31:21;68.32;;;40.53;;
81487;SDS011;70897;52.464;13.428;2024-03-02T08:34:07;68.32;;;39.78;;
81487;SDS011;70897;52.464;13.428;2024-03-02T08:36:53;69.95;;;40.60;;
81487;SDS011;70897;52.464;13.428;2024-03-02T08:39:38;69.75;;;39.35;;
81487;SDS011;70897;52.464;13.428;2024-03-02T08:42:24;73.25;;;40.60;;
81487;SDS011;70897;52.464;13.428;2024-03-02T08:45:09;65.63;;;39.60;;
81487;SDS011;70897;52.464;13.428;2024-03-02T08:47:55;67.30;;;39.25;;
81487;SDS011;70897;52.464;13.428;2024-03-02T08:50:40;68.30;;;39.03;;
81487;SDS011;70897;52.464;13.428;2024-03-02T08:53:26;69.50;;;39.05;;
81487;SDS011;70897;52.464;13.428;2024-03-02T08:56:11;68.80;;;39.53;;
81487;SDS011;70897;52.464;13.428;2024-03-02T08:58:57;69.25;;;39.38;;
81487;SDS011;70897;52.464;13.428;2024-03-02T09:01:42;68.22;;;38.72;;
81487;SDS011;70897;52.464;13.428;2024-03-02T09:04:29;70.68;;;40.20;;
81487;SDS011;70897;52.464;13.428;2024-03-02T09:07:15;65.65;;;38.35;;
81487;SDS011;70897;52.464;13.428;2024-03-02T09:10:00;62.95;;;36.80;;
81487;SDS011;70897;52.464;13.428;2024-03-02T09:12:45;66.70;;;37.53;;
81487;SDS011;70897;52.464;13.428;2024-03-02T09:15:31;65.80;;;37.80;;
81487;SDS011;70897;52.464;13.428;2024-03-02T09:18:16;61.03;;;37.10;;
81487;SDS011;70897;52.464;13.428;2024-03-02T09:21:02;63.47;;;36.50;;
81487;SDS011;70897;52.464;13.428;2024-03-02T09:23:48;64.18;;;36.58;;
81487;SDS011;70897;52.464;13.428;2024-03-02T09:26:34;69.47;;;37.30;;
81487;SDS011;70897;52.464;13.428;2024-03-02T09:29:19;61.55;;;36.45;;
81487;SDS011;70897;52.464;13.428;2024-03-02T09:32:05;59.33;;;35.55;;
81487;SDS011;70897;52.464;13.428;2024-03-02T09:34:50;58.78;;;34.75;;
81487;SDS011;70897;52.464;13.428;2024-03-02T09:37:37;60.53;;;35.65;;
81487;SDS011;70897;52.464;13.428;2024-03-02T09:40:22;58.10;;;34.75;;
81487;SDS011;70897;52.464;13.428;2024-03-02T09:43:08;56.10;;;33.88;;
81487;SDS011;70897;52.464;13.428;2024-03-02T09:45:54;55.13;;;33.42;;
81487;SDS011;70897;52.464;13.428;2024-03-02T09:48:39;55.40;;;31.90;;
81487;SDS011;70897;52.464;13.428;2024-03-02T09:51:24;54.88;;;32.47;;
81487;SDS011;70897;52.464;13.428;2024-03-02T09:54:10;57.60;;;35.28;;
81487;SDS011;70897;52.464;13.428;2024-03-02T09:56:55;52.72;;;31.25;;
81487;SDS011;70897;52.464;13.428;2024-03-02T09:59:41;47.17;;;29.58;;
81487;SDS011;70897;52.464;13.428;2024-03-02T10:02:26;49.22;;;30.17;;
81487;SDS011;70897;52.464;13.428;2024-03-02T10:05:12;44.40;;;27.85;;
81487;SDS011;70897;52.464;13.428;2024-03-02T10:08:01;46.55;;;28.83;;
81487;SDS011;70897;52.464;13.428;2024-03-02T10:10:47;44.30;;;28.65;;
81487;SDS011;70897;52.464;13.428;2024-03-02T10:13:32;45.05;;;28.00;;
81487;SDS011;70897;52.464;13.428;2024-03-02T10:16:18;41.97;;;26.55;;
81487;SDS011;70897;52.464;13.428;2024-03-02T10:19:25;44.22;;;28.23;;
81487;SDS011;70897;52.464;13.428;2024-03-02T10:22:10;44.28;;;27.65;;
81487;SDS011;70897;52.464;13.428;2024-03-02T10:24:56;41.17;;;26.40;;
81487;SDS011;70897;52.464;13.428;2024-03-02T10:27:41;42.50;;;27.23;;
81487;SDS011;70897;52.464;13.428;2024-03-02T10:30:27;40.45;;;24.95;;
81487;SDS011;70897;52.464;13.428;2024-03-02T10:33:13;38.47;;;23.98;;
81487;SDS011;70897;52.464;13.428;2024-03-02T10:35:59;39.03;;;24.90;;
81487;SDS011;70897;52.464;13.428;2024-03-02T10:38:45;36.10;;;23.98;;
81487;SDS011;70897;52.464;13.428;2024-03-02T10:41:35;37.95;;;24.15;;
81487;SDS011;70897;52.464;13.428;2024-03-02T10:44:21;37.70;;;24.63;;
81487;SDS011;70897;52.464;13.428;2024-03-02T10:47:07;39.13;;;24.38;;
81487;SDS011;70897;52.464;13.428;2024-03-02T10:49:53;36.28;;;24.05;;
81487;SDS011;70897;52.464;13.428;2024-03-02T10:52:39;35.20;;;23.25;;
81487;SDS011;70897;52.464;13.428;2024-03-02T10:55:25;43.85;;;27.77;;
81487;SDS011;70897;52.464;13.428;2024-03-02T10:58:11;35.63;;;23.00;;
81487;SDS011;70897;52.464;13.428;2024-03-02T11:00:57;35.53;;;22.10;;
81487;SDS011;70897;52.464;13.428;2024-03-02T11:03:45;37.55;;;23.48;;
81487;SDS011;70897;52.464;13.428;2024-03-02T11:06:32;36.35;;;23.95;;
81487;SDS011;70897;52.464;13.428;2024-03-02T11:09:20;37.65;;;23.83;;
81487;SDS011;70897;52.464;13.428;2024-03-02T11:12:19;35.70;;;22.55;;
81487;SDS011;70897;52.464;13.428;2024-03-02T11:15:05;35.55;;;23.48;;
81487;SDS011;70897;52.464;13.428;2024-03-02T11:17:54;35.17;;;23.00;;
81487;SDS011;70897;52.464;13.428;2024-03-02T11:20:40;31.23;;;22.10;;
81487;SDS011;70897;52.464;13.428;2024-03-02T11:23:32;34.15;;;21.83;;
81487;SDS011;70897;52.464;13.428;2024-03-02T11:26:21;33.22;;;21.02;;
81487;SDS011;70897;52.464;13.428;2024-03-02T11:29:08;34.10;;;22.52;;
81487;SDS011;70897;52.464;13.428;2024-03-02T11:31:59;33.15;;;21.15;;
81487;SDS011;70897;52.464;13.428;2024-03-02T11:34:46;32.88;;;22.55;;
81487;SDS011;70897;52.464;13.428;2024-03-02T11:37:31;30.52;;;21.13;;
81487;SDS011;70897;52.464;13.428;2024-03-02T11:40:24;34.95;;;22.00;;
81487;SDS011;70897;52.464;13.428;2024-03-02T11:43:09;31.48;;;20.38;;
81487;SDS011;70897;52.464;13.428;2024-03-02T11:45:59;30.27;;;21.42;;
81487;SDS011;70897;52.464;13.428;2024-03-02T11:48:45;33.00;;;21.02;;
81487;SDS011;70897;52.464;13.428;2024-03-02T11:51:32;33.63;;;20.58;;
81487;SDS011;70897;52.464;13.428;2024-03-02T11:54:18;33.50;;;21.00;;
81487;SDS011;70897;52.464;13.428;2024-03-02T11:57:03;30.50;;;20.90;;
81487;SDS011;70897;52.464;13.428;2024-03-02T11:59:49;34.33;;;21.92;;
81487;SDS011;70897;52.464;13.428;2024-03-02T12:02:34;31.08;;;21.08;;
81487;SDS011;70897;52.464;13.428;2024-03-02T12:05:19;30.98;;;19.77;;
81487;SDS011;70897;52.464;13.428;2024-03-02T12:08:07;34.42;;;22.52;;
81487;SDS011;70897;52.464;13.428;2024-03-02T12:11:00;31.90;;;21.10;;
81487;SDS011;70897;52.464;13.428;2024-03-02T12:13:52;32.97;;;20.50;;
81487;SDS011;70897;52.464;13.428;2024-03-02T12:16:44;31.58;;;20.58;;
81487;SDS011;70897;52.464;13.428;2024-03-02T12:19:30;31.33;;;19.77;;
81487;SDS011;70897;52.464;13.428;2024-03-02T12:22:16;29.25;;;18.75;;
81487;SDS011;70897;52.464;13.428;2024-03-02T12:25:01;30.75;;;19.52;;
81487;SDS011;70897;52.464;13.428;2024-03-02T12:27:47;30.80;;;19.70;;
81487;SDS011;70897;52.464;13.428;2024-03-02T12:30:35;31.85;;;20.02;;
81487;SDS011;70897;52.464;13.428;2024-03-02T12:33:20;29.92;;;18.67;;
81487;SDS011;70897;52.464;13.428;2024-03-02T12:36:09;28.63;;;18.70;;
81487;SDS011;70897;52.464;13.428;2024-03-02T12:38:56;28.95;;;19.80;;
81487;SDS011;70897;52.464;13.428;2024-03-02T12:41:41;27.95;;;19.17;;
81487;SDS011;70897;52.464;13.428;2024-03-02T12:44:27;27.83;;;20.15;;
81487;SDS011;70897;52.464;13.428;2024-03-02T12:47:12;29.42;;;20.83;;
81487;SDS011;70897;52.464;13.428;2024-03-02T12:49:58;27.23;;;19.75;;
81487;SDS011;70897;52.464;13.428;2024-03-02T12:52:43;27.55;;;19.05;;
81487;SDS011;70897;52.464;13.428;2024-03-02T12:55:29;27.45;;;19.25;;
81487;SDS011;70897;52.464;13.428;2024-03-02T12:58:18;28.88;;;19.92;;
81487;SDS011;70897;52.464;13.428;2024-03-02T13:01:08;25.60;;;18.17;;
81487;SDS011;70897;52.464;13.428;2024-03-02T13:03:55;27.50;;;18.58;;
81487;SDS011;70897;52.464;13.428;2024-03-02T13:06:41;27.48;;;18.92;;
81487;SDS011;70897;52.464;13.428;2024-03-02T13:09:26;24.65;;;17.25;;
81487;SDS011;70897;52.464;13.428;2024-03-02T13:12:12;27.70;;;18.17;;
81487;SDS011;70897;52.464;13.428;2024-03-02T13:15:00;23.73;;;17.55;;
81487;SDS011;70897;52.464;13.428;2024-03-02T13:17:48;22.58;;;16.55;;
81487;SDS011;70897;52.464;13.428;2024-03-02T13:20:35;23.15;;;16.88;;
81487;SDS011;70897;52.464;13.428;2024-03-02T13:23:21;25.40;;;17.83;;
81487;SDS011;70897;52.464;13.428;2024-03-02T13:26:07;24.65;;;17.98;;
81487;SDS011;70897;52.464;13.428;2024-03-02T13:28:54;26.42;;;18.00;;
81487;SDS011;70897;52.464;13.428;2024-03-02T13:31:40;27.30;;;16.90;;
81487;SDS011;70897;52.464;13.428;2024-03-02T13:34:25;23.35;;;17.30;;
81487;SDS011;70897;52.464;13.428;2024-03-02T13:37:11;22.83;;;16.65;;
81487;SDS011;70897;52.464;13.428;2024-03-02T13:39:56;23.30;;;16.55;;
81487;SDS011;70897;52.464;13.428;2024-03-02T13:42:42;23.25;;;15.98;;
81487;SDS011;70897;52.464;13.428;2024-03-02T13:45:27;21.38;;;14.98;;
81487;SDS011;70897;52.464;13.428;2024-03-02T13:48:12;23.17;;;15.43;;
81487;SDS011;70897;52.464;13.428;2024-03-02T13:50:58;23.40;;;16.67;;
81487;SDS011;70897;52.464;13.428;2024-03-02T13:53:44;23.02;;;15.70;;
81487;SDS011;70897;52.464;13.428;2024-03-02T13:56:29;21.70;;;14.60;;
81487;SDS011;70897;52.464;13.428;2024-03-02T13:59:16;18.05;;;13.35;;
81487;SDS011;70897;52.464;13.428;2024-03-02T14:02:02;18.40;;;13.82;;
81487;SDS011;70897;52.464;13.428;2024-03-02T14:04:50;21.60;;;15.02;;
81487;SDS011;70897;52.464;13.428;2024-03-02T14:07:37;22.35;;;14.98;;
81487;SDS011;70897;52.464;13.428;2024-03-02T14:10:22;19.80;;;14.05;;
81487;SDS011;70897;52.464;13.428;2024-03-02T14:13:08;21.25;;;15.27;;
81487;SDS011;70897;52.464;13.428;2024-03-02T14:15:53;20.40;;;13.77;;
81487;SDS011;70897;52.464;13.428;2024-03-02T14:18:39;21.65;;;14.27;;
81487;SDS011;70897;52.464;13.428;2024-03-02T14:21:24;23.13;;;14.95;;
81487;SDS011;70897;52.464;13.428;2024-03-02T14:24:10;23.35;;;15.88;;
81487;SDS011;70897;52.464;13.428;2024-03-02T14:26:56;24.63;;;16.38;;
81487;SDS011;70897;52.464;13.428;2024-03-02T14:29:47;24.63;;;16.13;;
81487;SDS011;70897;52.464;13.428;2024-03-02T14:32:32;24.40;;;15.60;;
81487;SDS011;70897;52.464;13.428;2024-03-02T14:35:18;23.75;;;15.95;;
81487;SDS011;70897;52.464;13.428;2024-03-02T14:38:03;25.38;;;15.05;;
81487;SDS011;70897;52.464;13.428;2024-03-02T14:40:49;24.25;;;15.00;;
81487;SDS011;70897;52.464;13.428;2024-03-02T14:43:34;21.70;;;14.90;;
81487;SDS011;70897;52.464;13.428;2024-03-02T14:46:19;23.40;;;15.50;;
81487;SDS011;70897;52.464;13.428;2024-03-02T14:49:04;22.77;;;14.48;;
81487;SDS011;70897;52.464;13.428;2024-03-02T14:51:49;24.73;;;15.98;;
81487;SDS011;70897;52.464;13.428;2024-03-02T14:54:34;25.70;;;15.93;;
81487;SDS011;70897;52.464;13.428;2024-03-02T14:57:19;25.50;;;15.27;;
81487;SDS011;70897;52.464;13.428;2024-03-02T15:00:05;23.67;;;13.85;;
81487;SDS011;70897;52.464;13.428;2024-03-02T15:02:52;21.83;;;14.57;;
81487;SDS011;70897;52.464;13.428;2024-03-02T15:05:37;23.40;;;14.52;;
81487;SDS011;70897;52.464;13.428;2024-03-02T15:08:23;20.65;;;13.50;;
81487;SDS011;70897;52.464;13.428;2024-03-02T15:11:08;24.25;;;15.00;;
81487;SDS011;70897;52.464;13.428;2024-03-02T15:13:53;21.75;;;13.75;;
81487;SDS011;70897;52.464;13.428;2024-03-02T15:16:38;19.92;;;13.93;;
81487;SDS011;70897;52.464;13.428;2024-03-02T15:19:24;21.52;;;13.77;;
81487;SDS011;70897;52.464;13.428;2024-03-02T15:22:09;20.98;;;14.07;;
81487;SDS011;70897;52.464;13.428;2024-03-02T15:24:54;20.80;;;13.98;;
81487;SDS011;70897;52.464;13.428;2024-03-02T15:27:39;22.90;;;13.68;;
81487;SDS011;70897;52.464;13.428;2024-03-02T15:30:24;22.15;;;13.50;;
81487;SDS011;70897;52.464;13.428;2024-03-02T15:33:09;22.25;;;13.48;;
81487;SDS011;70897;52.464;13.428;2024-03-02T15:35:54;22.70;;;13.77;;
81487;SDS011;70897;52.464;13.428;2024-03-02T15:38:39;21.45;;;13.50;;
81487;SDS011;70897;52.464;13.428;2024-03-02T15:41:24;21.77;;;13.70;;
81487;SDS011;70897;52.464;13.428;2024-03-02T15:44:09;20.83;;;13.10;;
81487;SDS011;70897;52.464;13.428;2024-03-02T15:46:55;21.35;;;13.25;;
81487;SDS011;70897;52.464;13.428;2024-03-02T15:49:40;18.73;;;12.55;;
81487;SDS011;70897;52.464;13.428;2024-03-02T15:52:25;19.55;;;11.18;;
81487;SDS011;70897;52.464;13.428;2024-03-02T15:55:10;17.10;;;10.75;;
81487;SDS011;70897;52.464;13.428;2024-03-02T15:57:55;15.27;;;9.82;;
81487;SDS011;70897;52.464;13.428;2024-03-02T16:00:41;15.57;;;10.20;;